sensor_id;sensor_type;location;lat;lon;timestamp;temperature;humidity
6740;DHT22;3407;49.882;10.920;2022-07-23T00:00:21;21.60;1.00
6740;DHT22;3407;49.882;10.920;2022-07-23T00:05:16;21.60;19.70
6740;DHT22;3407;49.882;10.920;2022-07-23T00:10:12;21.50;17.50
6740;DHT22;3407;49.882;10.920;2022-07-23T00:15:10;21.30;99.90
6740;DHT22;3407;49.882;10.920;2022-07-23T00:20:06;21.10;99.90
6740;DHT22;3407;49.882;10.920;2022-07-23T00:25:02;21.00;99.90
6740;DHT22;3407;49.882;10.920;2022-07-23T00:29:57;20.90;99.90
6740;DHT22;3407;49.882;10.920;2022-07-23T00:34:53;20.80;1.00
6740;DHT22;3407;49.882;10.920;2022-07-23T00:39:48;20.80;1.00
6740;DHT22;3407;49.882;10.920;2022-07-23T00:44:44;20.90;1.00
6740;DHT22;3407;49.882;10.920;2022-07-23T00:49:39;20.90;1.00
6740;DHT22;3407;49.882;10.920;2022-07-23T00:54:35;20.90;99.90
6740;DHT22;3407;49.882;10.920;2022-07-23T00:59:31;21.00;98.20
6740;DHT22;3407;49.882;10.920;2022-07-23T01:04:26;20.80;1.00
6740;DHT22;3407;49.882;10.920;2022-07-23T01:09:22;20.60;20.50
6740;DHT22;3407;49.882;10.920;2022-07-23T01:14:18;20.40;1.00
6740;DHT22;3407;49.882;10.920;2022-07-23T01:19:15;20.30;57.20
6740;DHT22;3407;49.882;10.920;2022-07-23T01:24:11;20.40;99.90
6740;DHT22;3407;49.882;10.920;2022-07-23T01:29:07;20.50;1.00
6740;DHT22;3407;49.882;10.920;2022-07-23T01:34:02;20.50;1.00
6740;DHT22;3407;49.882;10.920;2022-07-23T01:38:59;20.50;1.00
6740;DHT22;3407;49.882;10.920;2022-07-23T01:43:55;20.50;1.00
6740;DHT22;3407;49.882;10.920;2022-07-23T01:48:50;20.50;1.00
6740;DHT22;3407;49.882;10.920;2022-07-23T01:53:46;20.40;99.90
6740;DHT22;3407;49.882;10.920;2022-07-23T01:58:42;20.50;99.90
6740;DHT22;3407;49.882;10.920;2022-07-23T02:03:37;20.40;1.00
6740;DHT22;3407;49.882;10.920;2022-07-23T02:08:33;20.30;1.00
6740;DHT22;3407;49.882;10.920;2022-07-23T02:13:28;20.20;1.00
6740;DHT22;3407;49.882;10.920;2022-07-23T02:18:24;20.20;1.00
6740;DHT22;3407;49.882;10.920;2022-07-23T02:23:20;20.20;99.90
6740;DHT22;3407;49.882;10.920;2022-07-23T02:28:16;20.00;1.00
6740;DHT22;3407;49.882;10.920;2022-07-23T02:33:11;19.90;99.90
6740;DHT22;3407;49.882;10.920;2022-07-23T02:38:07;19.80;1.00
6740;DHT22;3407;49.882;10.920;2022-07-23T02:43:02;19.60;99.90
6740;DHT22;3407;49.882;10.920;2022-07-23T02:47:58;19.50;1.00
6740;DHT22;3407;49.882;10.920;2022-07-23T02:52:53;19.50;99.90
6740;DHT22;3407;49.882;10.920;2022-07-23T02:57:49;19.40;99.90
6740;DHT22;3407;49.882;10.920;2022-07-23T03:02:44;19.40;95.40
6740;DHT22;3407;49.882;10.920;2022-07-23T03:07:40;19.50;1.00
6740;DHT22;3407;49.882;10.920;2022-07-23T03:12:35;19.60;1.00
6740;DHT22;3407;49.882;10.920;2022-07-23T03:17:31;19.60;99.90
6740;DHT22;3407;49.882;10.920;2022-07-23T03:22:26;19.60;1.00
6740;DHT22;3407;49.882;10.920;2022-07-23T03:27:26;19.50;1.00
6740;DHT22;3407;49.882;10.920;2022-07-23T03:32:23;19.40;99.90
6740;DHT22;3407;49.882;10.920;2022-07-23T03:37:19;19.20;99.90
6740;DHT22;3407;49.882;10.920;2022-07-23T03:42:15;19.10;1.00
6740;DHT22;3407;49.882;10.920;2022-07-23T03:47:11;19.10;1.00
6740;DHT22;3407;49.882;10.920;2022-07-23T03:52:06;19.00;1.00
6740;DHT22;3407;49.882;10.920;2022-07-23T03:57:02;19.00;1.00
6740;DHT22;3407;49.882;10.920;2022-07-23T04:01:57;18.90;1.00
6740;DHT22;3407;49.882;10.920;2022-07-23T04:06:53;18.80;1.00
6740;DHT22;3407;49.882;10.920;2022-07-23T04:11:48;18.80;1.00
6740;DHT22;3407;49.882;10.920;2022-07-23T04:16:44;18.70;1.00
6740;DHT22;3407;49.882;10.920;2022-07-23T04:21:40;18.70;99.90
6740;DHT22;3407;49.882;10.920;2022-07-23T04:26:35;18.80;1.00
6740;DHT22;3407;49.882;10.920;2022-07-23T04:31:31;18.70;99.90
6740;DHT22;3407;49.882;10.920;2022-07-23T04:36:26;19.00;99.90
6740;DHT22;3407;49.882;10.920;2022-07-23T04:41:22;19.40;99.90
6740;DHT22;3407;49.882;10.920;2022-07-23T04:46:18;19.80;1.00
6740;DHT22;3407;49.882;10.920;2022-07-23T04:51:13;20.10;99.90
6740;DHT22;3407;49.882;10.920;2022-07-23T04:56:09;20.10;99.90
6740;DHT22;3407;49.882;10.920;2022-07-23T05:01:04;20.10;1.00
6740;DHT22;3407;49.882;10.920;2022-07-23T05:06:00;20.40;1.00
6740;DHT22;3407;49.882;10.920;2022-07-23T05:10:56;20.70;99.90
6740;DHT22;3407;49.882;10.920;2022-07-23T05:15:51;21.20;1.00
6740;DHT22;3407;49.882;10.920;2022-07-23T05:20:47;21.90;58.30
6740;DHT22;3407;49.882;10.920;2022-07-23T05:25:42;22.80;1.00
6740;DHT22;3407;49.882;10.920;2022-07-23T05:30:38;24.30;1.00
6740;DHT22;3407;49.882;10.920;2022-07-23T05:35:34;26.30;99.90
6740;DHT22;3407;49.882;10.920;2022-07-23T05:40:29;27.90;99.90
6740;DHT22;3407;49.882;10.920;2022-07-23T05:45:25;28.30;99.90
6740;DHT22;3407;49.882;10.920;2022-07-23T05:50:21;26.90;99.90
6740;DHT22;3407;49.882;10.920;2022-07-23T05:55:16;25.50;99.90
6740;DHT22;3407;49.882;10.920;2022-07-23T06:00:12;24.50;99.90
6740;DHT22;3407;49.882;10.920;2022-07-23T06:05:09;25.90;99.90
6740;DHT22;3407;49.882;10.920;2022-07-23T06:10:05;26.60;99.90
6740;DHT22;3407;49.882;10.920;2022-07-23T06:15:01;25.90;99.90
6740;DHT22;3407;49.882;10.920;2022-07-23T06:19:57;25.60;99.90
6740;DHT22;3407;49.882;10.920;2022-07-23T06:24:52;25.90;99.90
6740;DHT22;3407;49.882;10.920;2022-07-23T06:29:48;26.10;99.90
6740;DHT22;3407;49.882;10.920;2022-07-23T06:34:43;25.80;99.90
6740;DHT22;3407;49.882;10.920;2022-07-23T06:39:39;25.70;99.90
6740;DHT22;3407;49.882;10.920;2022-07-23T06:44:34;25.80;99.90
6740;DHT22;3407;49.882;10.920;2022-07-23T06:49:30;26.20;99.90
6740;DHT22;3407;49.882;10.920;2022-07-23T06:54:25;26.50;99.90
6740;DHT22;3407;49.882;10.920;2022-07-23T06:59:21;26.30;99.90
6740;DHT22;3407;49.882;10.920;2022-07-23T07:04:16;25.90;99.90
6740;DHT22;3407;49.882;10.920;2022-07-23T07:09:12;25.50;99.90
6740;DHT22;3407;49.882;10.920;2022-07-23T07:14:07;25.00;99.90
6740;DHT22;3407;49.882;10.920;2022-07-23T07:19:03;24.60;99.90
6740;DHT22;3407;49.882;10.920;2022-07-23T07:23:58;24.00;1.00
6740;DHT22;3407;49.882;10.920;2022-07-23T07:28:54;23.60;99.90
6740;DHT22;3407;49.882;10.920;2022-07-23T07:33:50;23.60;99.90
6740;DHT22;3407;49.882;10.920;2022-07-23T07:38:46;23.70;99.90
6740;DHT22;3407;49.882;10.920;2022-07-23T07:43:42;23.90;99.90
6740;DHT22;3407;49.882;10.920;2022-07-23T07:48:37;24.00;99.90
6740;DHT22;3407;49.882;10.920;2022-07-23T07:53:33;24.20;77.80
6740;DHT22;3407;49.882;10.920;2022-07-23T07:58:28;25.30;1.00
6740;DHT22;3407;49.882;10.920;2022-07-23T08:03:24;26.80;99.90
6740;DHT22;3407;49.882;10.920;2022-07-23T08:08:19;26.80;99.90
6740;DHT22;3407;49.882;10.920;2022-07-23T08:13:16;26.30;99.90
6740;DHT22;3407;49.882;10.920;2022-07-23T08:18:11;25.50;99.90
6740;DHT22;3407;49.882;10.920;2022-07-23T08:23:08;24.70;99.90
6740;DHT22;3407;49.882;10.920;2022-07-23T08:28:06;24.00;99.90
6740;DHT22;3407;49.882;10.920;2022-07-23T08:33:08;23.20;99.90
6740;DHT22;3407;49.882;10.920;2022-07-23T08:38:08;22.60;99.90
6740;DHT22;3407;49.882;10.920;2022-07-23T08:43:09;22.50;99.90
6740;DHT22;3407;49.882;10.920;2022-07-23T08:48:08;23.00;1.00
6740;DHT22;3407;49.882;10.920;2022-07-23T08:53:07;24.10;61.00
6740;DHT22;3407;49.882;10.920;2022-07-23T08:58:03;25.70;22.40
6740;DHT22;3407;49.882;10.920;2022-07-23T09:02:58;26.80;1.00
6740;DHT22;3407;49.882;10.920;2022-07-23T09:13:05;28.50;99.90
6740;DHT22;3407;49.882;10.920;2022-07-23T09:18:01;29.20;99.90
6740;DHT22;3407;49.882;10.920;2022-07-23T09:22:56;29.80;99.90
6740;DHT22;3407;49.882;10.920;2022-07-23T09:27:57;30.20;99.90
6740;DHT22;3407;49.882;10.920;2022-07-23T09:33:13;30.20;99.90
6740;DHT22;3407;49.882;10.920;2022-07-23T09:38:10;30.00;99.90
6740;DHT22;3407;49.882;10.920;2022-07-23T09:43:06;29.50;99.90
6740;DHT22;3407;49.882;10.920;2022-07-23T09:48:16;28.70;99.90
6740;DHT22;3407;49.882;10.920;2022-07-23T09:53:24;28.20;99.90
6740;DHT22;3407;49.882;10.920;2022-07-23T09:58:21;28.00;99.90
6740;DHT22;3407;49.882;10.920;2022-07-23T10:03:18;28.20;99.90
6740;DHT22;3407;49.882;10.920;2022-07-23T10:08:18;28.40;99.90
6740;DHT22;3407;49.882;10.920;2022-07-23T10:13:14;28.80;99.90
6740;DHT22;3407;49.882;10.920;2022-07-23T10:18:26;28.90;99.90
6740;DHT22;3407;49.882;10.920;2022-07-23T10:23:30;29.50;99.90
6740;DHT22;3407;49.882;10.920;2022-07-23T10:28:41;30.90;99.90
6740;DHT22;3407;49.882;10.920;2022-07-23T10:33:52;31.50;99.90
6740;DHT22;3407;49.882;10.920;2022-07-23T10:38:53;31.50;99.90
6740;DHT22;3407;49.882;10.920;2022-07-23T10:44:15;31.20;99.90
6740;DHT22;3407;49.882;10.920;2022-07-23T10:54:21;33.70;63.90
6740;DHT22;3407;49.882;10.920;2022-07-23T10:59:17;32.20;64.10
6740;DHT22;3407;49.882;10.920;2022-07-23T11:04:14;31.90;62.40
6740;DHT22;3407;49.882;10.920;2022-07-23T11:09:30;31.70;64.80
6740;DHT22;3407;49.882;10.920;2022-07-23T11:15:05;34.40;51.80
6740;DHT22;3407;49.882;10.920;2022-07-23T11:35:25;34.50;30.40
6740;DHT22;3407;49.882;10.920;2022-07-23T11:40:21;34.40;27.90
6740;DHT22;3407;49.882;10.920;2022-07-23T11:45:17;32.30;30.20
6740;DHT22;3407;49.882;10.920;2022-07-23T11:50:12;31.30;38.60
6740;DHT22;3407;49.882;10.920;2022-07-23T11:55:10;33.30;36.90
6740;DHT22;3407;49.882;10.920;2022-07-23T12:05:06;31.50;39.40
6740;DHT22;3407;49.882;10.920;2022-07-23T12:15:06;34.60;33.70
6740;DHT22;3407;49.882;10.920;2022-07-23T12:20:05;36.10;22.30
6740;DHT22;3407;49.882;10.920;2022-07-23T12:25:16;34.50;21.50
6740;DHT22;3407;49.882;10.920;2022-07-23T12:30:20;32.80;27.50
6740;DHT22;3407;49.882;10.920;2022-07-23T12:35:16;34.10;25.50
6740;DHT22;3407;49.882;10.920;2022-07-23T12:40:24;33.20;25.10
6740;DHT22;3407;49.882;10.920;2022-07-23T12:45:20;32.60;49.20
6740;DHT22;3407;49.882;10.920;2022-07-23T12:55:34;32.60;26.50
6740;DHT22;3407;49.882;10.920;2022-07-23T13:00:30;33.40;25.90
6740;DHT22;3407;49.882;10.920;2022-07-23T13:05:25;34.10;20.80
6740;DHT22;3407;49.882;10.920;2022-07-23T13:10:21;34.70;18.70
6740;DHT22;3407;49.882;10.920;2022-07-23T13:15:17;35.60;14.40
6740;DHT22;3407;49.882;10.920;2022-07-23T13:20:12;34.20;15.50
6740;DHT22;3407;49.882;10.920;2022-07-23T13:25:08;33.40;16.40
6740;DHT22;3407;49.882;10.920;2022-07-23T13:30:04;32.50;18.90
6740;DHT22;3407;49.882;10.920;2022-07-23T13:35:01;32.40;19.40
6740;DHT22;3407;49.882;10.920;2022-07-23T13:39:57;31.70;19.20
6740;DHT22;3407;49.882;10.920;2022-07-23T13:44:52;30.80;21.60
6740;DHT22;3407;49.882;10.920;2022-07-23T13:49:48;30.30;24.60
6740;DHT22;3407;49.882;10.920;2022-07-23T13:54:43;30.50;26.80
6740;DHT22;3407;49.882;10.920;2022-07-23T13:59:39;30.60;25.80
6740;DHT22;3407;49.882;10.920;2022-07-23T14:04:35;30.80;26.20
6740;DHT22;3407;49.882;10.920;2022-07-23T14:09:30;30.30;25.20
6740;DHT22;3407;49.882;10.920;2022-07-23T14:14:29;30.10;27.60
6740;DHT22;3407;49.882;10.920;2022-07-23T14:19:24;30.10;25.50
6740;DHT22;3407;49.882;10.920;2022-07-23T14:24:20;29.70;23.30
6740;DHT22;3407;49.882;10.920;2022-07-23T14:29:16;29.60;26.00
6740;DHT22;3407;49.882;10.920;2022-07-23T14:34:12;29.60;26.10
6740;DHT22;3407;49.882;10.920;2022-07-23T14:39:08;29.40;27.50
6740;DHT22;3407;49.882;10.920;2022-07-23T14:44:04;29.20;29.20
6740;DHT22;3407;49.882;10.920;2022-07-23T14:49:00;28.90;29.80
6740;DHT22;3407;49.882;10.920;2022-07-23T14:53:55;29.40;29.50
6740;DHT22;3407;49.882;10.920;2022-07-23T14:58:51;30.00;27.40
6740;DHT22;3407;49.882;10.920;2022-07-23T15:03:46;30.20;26.50
6740;DHT22;3407;49.882;10.920;2022-07-23T15:08:43;30.10;27.60
6740;DHT22;3407;49.882;10.920;2022-07-23T15:13:39;30.00;25.90
6740;DHT22;3407;49.882;10.920;2022-07-23T15:18:35;29.80;26.00
6740;DHT22;3407;49.882;10.920;2022-07-23T15:23:30;29.70;27.00
6740;DHT22;3407;49.882;10.920;2022-07-23T15:28:26;29.80;28.90
6740;DHT22;3407;49.882;10.920;2022-07-23T15:33:22;29.70;29.80
6740;DHT22;3407;49.882;10.920;2022-07-23T15:38:17;29.50;29.10
6740;DHT22;3407;49.882;10.920;2022-07-23T15:43:13;29.70;28.60
6740;DHT22;3407;49.882;10.920;2022-07-23T15:48:08;29.50;27.10
6740;DHT22;3407;49.882;10.920;2022-07-23T15:53:04;29.30;26.00
6740;DHT22;3407;49.882;10.920;2022-07-23T15:58:00;29.00;27.30
6740;DHT22;3407;49.882;10.920;2022-07-23T16:02:55;29.00;29.40
6740;DHT22;3407;49.882;10.920;2022-07-23T16:07:51;29.00;27.00
6740;DHT22;3407;49.882;10.920;2022-07-23T16:12:47;29.10;26.80
6740;DHT22;3407;49.882;10.920;2022-07-23T16:17:43;29.10;26.50
6740;DHT22;3407;49.882;10.920;2022-07-23T16:22:38;29.00;24.30
6740;DHT22;3407;49.882;10.920;2022-07-23T16:27:36;28.70;23.80
6740;DHT22;3407;49.882;10.920;2022-07-23T16:32:31;28.60;24.60
6740;DHT22;3407;49.882;10.920;2022-07-23T16:37:27;28.60;24.60
6740;DHT22;3407;49.882;10.920;2022-07-23T16:42:23;28.40;23.80
6740;DHT22;3407;49.882;10.920;2022-07-23T16:47:19;28.20;23.70
6740;DHT22;3407;49.882;10.920;2022-07-23T16:52:17;28.10;25.30
6740;DHT22;3407;49.882;10.920;2022-07-23T16:57:13;28.10;25.40
6740;DHT22;3407;49.882;10.920;2022-07-23T17:02:09;28.10;25.10
6740;DHT22;3407;49.882;10.920;2022-07-23T17:07:04;28.10;25.90
6740;DHT22;3407;49.882;10.920;2022-07-23T17:12:02;28.00;27.60
6740;DHT22;3407;49.882;10.920;2022-07-23T17:16:58;27.80;24.60
6740;DHT22;3407;49.882;10.920;2022-07-23T17:21:54;27.50;25.60
6740;DHT22;3407;49.882;10.920;2022-07-23T17:26:49;27.30;25.90
6740;DHT22;3407;49.882;10.920;2022-07-23T17:31:45;27.10;27.30
6740;DHT22;3407;49.882;10.920;2022-07-23T17:36:40;27.10;28.50
6740;DHT22;3407;49.882;10.920;2022-07-23T17:41:36;27.00;28.40
6740;DHT22;3407;49.882;10.920;2022-07-23T17:46:32;26.90;27.40
6740;DHT22;3407;49.882;10.920;2022-07-23T17:51:27;26.70;28.70
6740;DHT22;3407;49.882;10.920;2022-07-23T17:56:23;26.50;28.60
6740;DHT22;3407;49.882;10.920;2022-07-23T18:01:19;26.40;28.10
6740;DHT22;3407;49.882;10.920;2022-07-23T18:06:14;26.40;28.60
6740;DHT22;3407;49.882;10.920;2022-07-23T18:11:10;26.30;28.60
6740;DHT22;3407;49.882;10.920;2022-07-23T18:16:06;26.10;28.60
6740;DHT22;3407;49.882;10.920;2022-07-23T18:21:02;26.00;28.80
6740;DHT22;3407;49.882;10.920;2022-07-23T18:25:59;25.90;27.90
6740;DHT22;3407;49.882;10.920;2022-07-23T18:30:56;25.90;28.20
6740;DHT22;3407;49.882;10.920;2022-07-23T18:35:52;25.80;28.40
6740;DHT22;3407;49.882;10.920;2022-07-23T18:40:47;25.70;29.00
6740;DHT22;3407;49.882;10.920;2022-07-23T18:45:43;25.60;29.90
6740;DHT22;3407;49.882;10.920;2022-07-23T18:50:39;25.50;30.10
6740;DHT22;3407;49.882;10.920;2022-07-23T18:55:37;25.40;31.90
6740;DHT22;3407;49.882;10.920;2022-07-23T19:00:35;25.20;32.50
6740;DHT22;3407;49.882;10.920;2022-07-23T19:05:31;25.20;34.00
6740;DHT22;3407;49.882;10.920;2022-07-23T19:10:27;25.00;35.40
6740;DHT22;3407;49.882;10.920;2022-07-23T19:15:23;24.90;36.10
6740;DHT22;3407;49.882;10.920;2022-07-23T19:20:19;24.80;37.70
6740;DHT22;3407;49.882;10.920;2022-07-23T19:25:15;24.70;38.90
6740;DHT22;3407;49.882;10.920;2022-07-23T19:30:10;24.60;41.80
6740;DHT22;3407;49.882;10.920;2022-07-23T19:35:07;24.40;43.80
6740;DHT22;3407;49.882;10.920;2022-07-23T19:40:04;24.30;46.40
6740;DHT22;3407;49.882;10.920;2022-07-23T19:45:02;24.10;47.80
6740;DHT22;3407;49.882;10.920;2022-07-23T19:49:58;23.90;52.20
6740;DHT22;3407;49.882;10.920;2022-07-23T19:54:54;23.80;54.80
6740;DHT22;3407;49.882;10.920;2022-07-23T19:59:49;23.60;60.10
6740;DHT22;3407;49.882;10.920;2022-07-23T20:04:45;23.50;62.00
6740;DHT22;3407;49.882;10.920;2022-07-23T20:09:41;23.30;65.70
6740;DHT22;3407;49.882;10.920;2022-07-23T20:14:37;23.20;71.50
6740;DHT22;3407;49.882;10.920;2022-07-23T20:19:33;23.00;82.90
6740;DHT22;3407;49.882;10.920;2022-07-23T20:24:29;22.90;93.00
6740;DHT22;3407;49.882;10.920;2022-07-23T20:29:25;22.70;99.90
6740;DHT22;3407;49.882;10.920;2022-07-23T20:34:21;22.60;99.90
6740;DHT22;3407;49.882;10.920;2022-07-23T20:39:16;22.50;99.90
6740;DHT22;3407;49.882;10.920;2022-07-23T20:44:12;22.40;99.90
6740;DHT22;3407;49.882;10.920;2022-07-23T20:49:09;22.30;99.90
6740;DHT22;3407;49.882;10.920;2022-07-23T20:54:05;22.20;99.90
6740;DHT22;3407;49.882;10.920;2022-07-23T20:59:00;22.10;99.90
6740;DHT22;3407;49.882;10.920;2022-07-23T21:03:56;21.80;99.90
6740;DHT22;3407;49.882;10.920;2022-07-23T21:08:51;21.70;99.90
6740;DHT22;3407;49.882;10.920;2022-07-23T21:13:48;21.50;99.90
6740;DHT22;3407;49.882;10.920;2022-07-23T21:18:44;21.30;99.90
6740;DHT22;3407;49.882;10.920;2022-07-23T21:23:42;21.20;99.90
6740;DHT22;3407;49.882;10.920;2022-07-23T21:28:39;21.10;1.00
6740;DHT22;3407;49.882;10.920;2022-07-23T21:33:35;21.10;1.00
6740;DHT22;3407;49.882;10.920;2022-07-23T21:38:31;20.90;1.00
6740;DHT22;3407;49.882;10.920;2022-07-23T21:43:27;20.80;1.00
6740;DHT22;3407;49.882;10.920;2022-07-23T21:48:22;20.70;1.00
6740;DHT22;3407;49.882;10.920;2022-07-23T21:53:18;20.70;1.00
6740;DHT22;3407;49.882;10.920;2022-07-23T21:58:13;20.70;1.00
6740;DHT22;3407;49.882;10.920;2022-07-23T22:03:09;20.70;1.00
6740;DHT22;3407;49.882;10.920;2022-07-23T22:08:05;20.70;1.00
6740;DHT22;3407;49.882;10.920;2022-07-23T22:13:01;20.70;1.00
6740;DHT22;3407;49.882;10.920;2022-07-23T22:17:56;20.70;1.00
6740;DHT22;3407;49.882;10.920;2022-07-23T22:22:52;20.70;37.80
6740;DHT22;3407;49.882;10.920;2022-07-23T22:27:48;20.70;98.20
6740;DHT22;3407;49.882;10.920;2022-07-23T22:32:44;20.60;99.90
6740;DHT22;3407;49.882;10.920;2022-07-23T22:37:40;20.20;99.90
6740;DHT22;3407;49.882;10.920;2022-07-23T22:42:36;19.90;1.00
6740;DHT22;3407;49.882;10.920;2022-07-23T22:47:31;19.80;1.00
6740;DHT22;3407;49.882;10.920;2022-07-23T22:52:27;19.70;1.00
6740;DHT22;3407;49.882;10.920;2022-07-23T22:57:22;19.60;99.90
6740;DHT22;3407;49.882;10.920;2022-07-23T23:02:18;19.50;1.00
6740;DHT22;3407;49.882;10.920;2022-07-23T23:07:13;19.50;56.40
6740;DHT22;3407;49.882;10.920;2022-07-23T23:12:09;19.50;1.40
6740;DHT22;3407;49.882;10.920;2022-07-23T23:17:05;19.40;1.00
6740;DHT22;3407;49.882;10.920;2022-07-23T23:22:00;19.30;99.90
6740;DHT22;3407;49.882;10.920;2022-07-23T23:26:56;19.20;1.00
6740;DHT22;3407;49.882;10.920;2022-07-23T23:31:51;19.10;99.90
6740;DHT22;3407;49.882;10.920;2022-07-23T23:36:47;19.10;99.90
6740;DHT22;3407;49.882;10.920;2022-07-23T23:41:42;19.10;99.90
6740;DHT22;3407;49.882;10.920;2022-07-23T23:46:38;18.90;1.00
6740;DHT22;3407;49.882;10.920;2022-07-23T23:51:33;18.90;1.00
6740;DHT22;3407;49.882;10.920;2022-07-23T23:56:30;18.90;1.00
